N2126R KHXD-KRDU
Flight info
| Callsign | N2126R |
|---|---|
| Flight time | 1h 7m |
| Altitude | 25000 |
| Route | DEDDY ETBUY DMSTR2 |
| Aircraft | TBM9/L-SDFGRWY/S |
Departure
| Time | 2026-05-06 22:26 |
|---|---|
| Airport | Hilton Head Airport (KHXD) |
Arrival
| Time | 2026-05-06 23:33 |
|---|---|
| Airport | Raleigh-Durham International Airport (KRDU) |
| Time | Latitude | Longitude | Altitude | Speed | Heading |
|---|---|---|---|---|---|
| 2026-05-06 22:23 | 32.22906 | -80.69481 | 16 ft | 0 kts | 205° |
| 2026-05-06 22:25 | 32.22905 | -80.69482 | 16 ft | 3 kts | 205° |
| 2026-05-06 22:25 | 32.22696 | -80.69600 | 19 ft | 64 kts | 207° |
| 2026-05-06 22:25 | 32.22139 | -80.69930 | 121 ft | 107 kts | 204° |
| 2026-05-06 22:25 | 32.21414 | -80.70365 | 497 ft | 124 kts | 207° |
| 2026-05-06 22:26 | 32.20602 | -80.70885 | 834 ft | 144 kts | 207° |
| 2026-05-06 22:26 | 32.19671 | -80.71454 | 1278 ft | 156 kts | 204° |
| 2026-05-06 22:26 | 32.18639 | -80.71899 | 1774 ft | 164 kts | 184° |
| 2026-05-06 22:26 | 32.17561 | -80.71431 | 2238 ft | 174 kts | 141° |
| 2026-05-06 22:27 | 32.16927 | -80.70178 | 2726 ft | 183 kts | 117° |
| 2026-05-06 22:27 | 32.16426 | -80.68786 | 3220 ft | 186 kts | 116° |
| 2026-05-06 22:27 | 32.16079 | -80.67310 | 3685 ft | 192 kts | 90° |
| 2026-05-06 22:27 | 32.16553 | -80.65865 | 4158 ft | 193 kts | 46° |
| 2026-05-06 22:28 | 32.17647 | -80.64984 | 4648 ft | 191 kts | 23° |
| 2026-05-06 22:28 | 32.18827 | -80.64259 | 5144 ft | 192 kts | 24° |
| 2026-05-06 22:28 | 32.20015 | -80.63528 | 5634 ft | 193 kts | 23° |
| 2026-05-06 22:28 | 32.21260 | -80.63001 | 6117 ft | 188 kts | 359° |
| 2026-05-06 22:29 | 32.22119 | -80.63005 | 6445 ft | 187 kts | 355° |
| 2026-05-06 22:29 | 32.23424 | -80.62986 | 6914 ft | 188 kts | 357° |
| 2026-05-06 22:29 | 32.24734 | -80.62956 | 7388 ft | 188 kts | 356° |
| 2026-05-06 22:29 | 32.26482 | -80.62911 | 8079 ft | 191 kts | 356° |
| 2026-05-06 22:30 | 32.27376 | -80.62885 | 8478 ft | 191 kts | 356° |
| 2026-05-06 22:30 | 32.28712 | -80.62797 | 9035 ft | 196 kts | 4° |
| 2026-05-06 22:30 | 32.30024 | -80.62277 | 9593 ft | 204 kts | 24° |
| 2026-05-06 22:30 | 32.31195 | -80.61285 | 10151 ft | 210 kts | 36° |
| 2026-05-06 22:31 | 32.32300 | -80.60135 | 10676 ft | 212 kts | 37° |
| 2026-05-06 22:31 | 32.33428 | -80.59000 | 11204 ft | 213 kts | 35° |
| 2026-05-06 22:31 | 32.34579 | -80.57880 | 11733 ft | 215 kts | 34° |
| 2026-05-06 22:31 | 32.35737 | -80.56749 | 12250 ft | 217 kts | 34° |
| 2026-05-06 22:32 | 32.36901 | -80.55608 | 12750 ft | 219 kts | 34° |
| 2026-05-06 22:32 | 32.38080 | -80.54454 | 13285 ft | 221 kts | 34° |
| 2026-05-06 22:32 | 32.39265 | -80.53292 | 13808 ft | 222 kts | 34° |
| 2026-05-06 22:32 | 32.40461 | -80.52119 | 14285 ft | 224 kts | 33° |
| 2026-05-06 22:33 | 32.41659 | -80.50944 | 14767 ft | 224 kts | 33° |
| 2026-05-06 22:33 | 32.42850 | -80.49775 | 15251 ft | 225 kts | 33° |
| 2026-05-06 22:33 | 32.44076 | -80.48572 | 15743 ft | 226 kts | 32° |
| 2026-05-06 22:33 | 32.45276 | -80.47395 | 16220 ft | 228 kts | 32° |
| 2026-05-06 22:34 | 32.46499 | -80.46194 | 16712 ft | 229 kts | 32° |
| 2026-05-06 22:34 | 32.47725 | -80.44989 | 17204 ft | 230 kts | 32° |
| 2026-05-06 22:34 | 32.48958 | -80.43777 | 17702 ft | 231 kts | 31° |
| 2026-05-06 22:34 | 32.50195 | -80.42561 | 18197 ft | 232 kts | 31° |
| 2026-05-06 22:35 | 32.51441 | -80.41336 | 18633 ft | 233 kts | 31° |
| 2026-05-06 22:35 | 32.52695 | -80.40102 | 19045 ft | 235 kts | 31° |
| 2026-05-06 22:35 | 32.53962 | -80.38856 | 19459 ft | 237 kts | 31° |
| 2026-05-06 22:35 | 32.55237 | -80.37600 | 19873 ft | 239 kts | 31° |
| 2026-05-06 22:36 | 32.56522 | -80.36334 | 20276 ft | 241 kts | 31° |
| 2026-05-06 22:36 | 32.57805 | -80.35070 | 20696 ft | 243 kts | 31° |
| 2026-05-06 22:36 | 32.59130 | -80.33764 | 21124 ft | 245 kts | 31° |
| 2026-05-06 22:36 | 32.60445 | -80.32466 | 21544 ft | 247 kts | 31° |
| 2026-05-06 22:37 | 32.61758 | -80.31171 | 21953 ft | 249 kts | 31° |
| 2026-05-06 22:37 | 32.63098 | -80.29849 | 22372 ft | 252 kts | 31° |
| 2026-05-06 22:37 | 32.64450 | -80.28514 | 22800 ft | 254 kts | 31° |
| 2026-05-06 22:37 | 32.65814 | -80.27167 | 23216 ft | 256 kts | 31° |
| 2026-05-06 22:38 | 32.67189 | -80.25808 | 23631 ft | 258 kts | 31° |
| 2026-05-06 22:38 | 32.68573 | -80.24439 | 23993 ft | 259 kts | 31° |
| 2026-05-06 22:38 | 32.69962 | -80.23065 | 24353 ft | 261 kts | 31° |
| 2026-05-06 22:38 | 32.71359 | -80.21683 | 24719 ft | 262 kts | 30° |
| 2026-05-06 22:39 | 32.72762 | -80.20296 | 25017 ft | 267 kts | 30° |
| 2026-05-06 22:39 | 32.74235 | -80.18844 | 25034 ft | 283 kts | 31° |
| 2026-05-06 22:39 | 32.75778 | -80.17311 | 25041 ft | 295 kts | 32° |
| 2026-05-06 22:39 | 32.77378 | -80.15716 | 25039 ft | 305 kts | 32° |
| 2026-05-06 22:40 | 32.79022 | -80.14080 | 25023 ft | 312 kts | 32° |
| 2026-05-06 22:40 | 32.80703 | -80.12413 | 25025 ft | 317 kts | 32° |
| 2026-05-06 22:40 | 32.82408 | -80.10719 | 25025 ft | 321 kts | 32° |
| 2026-05-06 22:40 | 32.84129 | -80.09008 | 25024 ft | 324 kts | 32° |
| 2026-05-06 22:41 | 32.87588 | -80.05584 | 25013 ft | 325 kts | 30° |
| 2026-05-06 22:41 | 32.89487 | -80.04192 | 25005 ft | 317 kts | 18° |
| 2026-05-06 22:41 | 32.91519 | -80.03269 | 25004 ft | 309 kts | 8° |
| 2026-05-06 22:42 | 32.93601 | -80.02743 | 25009 ft | 305 kts | 3° |
| 2026-05-06 22:42 | 32.95685 | -80.02248 | 25016 ft | 306 kts | 4° |
| 2026-05-06 22:42 | 32.97772 | -80.01736 | 25017 ft | 306 kts | 4° |
| 2026-05-06 22:42 | 32.99860 | -80.01231 | 25018 ft | 306 kts | 4° |
| 2026-05-06 22:43 | 33.01950 | -80.00731 | 25017 ft | 306 kts | 4° |
| 2026-05-06 22:43 | 33.04040 | -80.00229 | 25019 ft | 306 kts | 4° |
| 2026-05-06 22:43 | 33.06127 | -79.99725 | 25018 ft | 306 kts | 4° |
| 2026-05-06 22:43 | 33.08215 | -79.99220 | 25019 ft | 306 kts | 4° |
| 2026-05-06 22:44 | 33.10300 | -79.98718 | 25018 ft | 306 kts | 4° |
| 2026-05-06 22:44 | 33.12384 | -79.98215 | 25023 ft | 306 kts | 4° |
| 2026-05-06 22:44 | 33.14470 | -79.97711 | 25023 ft | 306 kts | 4° |
| 2026-05-06 22:44 | 33.16556 | -79.97206 | 25026 ft | 306 kts | 4° |
| 2026-05-06 22:45 | 33.18642 | -79.96702 | 25023 ft | 306 kts | 4° |
| 2026-05-06 22:45 | 33.20725 | -79.96198 | 25021 ft | 306 kts | 4° |
| 2026-05-06 22:45 | 33.22812 | -79.95693 | 25023 ft | 306 kts | 4° |
| 2026-05-06 22:45 | 33.24868 | -79.95195 | 25019 ft | 305 kts | 4° |
| 2026-05-06 22:46 | 33.26952 | -79.94690 | 25020 ft | 305 kts | 4° |
| 2026-05-06 22:46 | 33.29061 | -79.94179 | 25020 ft | 305 kts | 4° |
| 2026-05-06 22:46 | 33.31117 | -79.93681 | 25016 ft | 305 kts | 4° |
| 2026-05-06 22:46 | 33.33198 | -79.93176 | 25015 ft | 305 kts | 4° |
| 2026-05-06 22:47 | 33.35278 | -79.92672 | 25014 ft | 305 kts | 4° |
| 2026-05-06 22:47 | 33.37359 | -79.92166 | 25011 ft | 305 kts | 4° |
| 2026-05-06 22:47 | 33.39438 | -79.91661 | 25008 ft | 305 kts | 4° |
| 2026-05-06 22:47 | 33.41518 | -79.91155 | 25003 ft | 305 kts | 4° |
| 2026-05-06 22:48 | 33.43623 | -79.90644 | 25000 ft | 305 kts | 4° |
| 2026-05-06 22:48 | 33.45698 | -79.90139 | 24994 ft | 305 kts | 4° |
| 2026-05-06 22:48 | 33.47777 | -79.89633 | 24992 ft | 305 kts | 4° |
| 2026-05-06 22:48 | 33.49827 | -79.89133 | 24993 ft | 305 kts | 4° |
| 2026-05-06 22:49 | 33.51903 | -79.88627 | 24993 ft | 304 kts | 4° |
| 2026-05-06 22:49 | 33.53977 | -79.88122 | 24991 ft | 304 kts | 4° |
| 2026-05-06 22:49 | 33.56052 | -79.87616 | 24991 ft | 304 kts | 4° |
| 2026-05-06 22:49 | 33.58128 | -79.87109 | 24996 ft | 304 kts | 4° |
| 2026-05-06 22:50 | 33.60201 | -79.86603 | 24993 ft | 304 kts | 4° |
| 2026-05-06 22:50 | 33.62277 | -79.86096 | 24993 ft | 304 kts | 4° |
| 2026-05-06 22:50 | 33.64355 | -79.85588 | 24995 ft | 304 kts | 4° |
| 2026-05-06 22:50 | 33.66427 | -79.85082 | 24994 ft | 304 kts | 4° |
| 2026-05-06 22:51 | 33.68498 | -79.84575 | 24995 ft | 304 kts | 4° |
| 2026-05-06 22:51 | 33.70572 | -79.84068 | 25000 ft | 304 kts | 4° |
| 2026-05-06 22:51 | 33.72644 | -79.83560 | 24997 ft | 304 kts | 4° |
| 2026-05-06 22:51 | 33.74717 | -79.83053 | 24994 ft | 304 kts | 4° |
| 2026-05-06 22:52 | 33.76788 | -79.82545 | 24995 ft | 304 kts | 4° |
| 2026-05-06 22:52 | 33.78863 | -79.82036 | 24992 ft | 304 kts | 4° |
| 2026-05-06 22:52 | 33.80938 | -79.81527 | 24994 ft | 304 kts | 4° |
| 2026-05-06 22:52 | 33.83011 | -79.81018 | 24994 ft | 304 kts | 4° |
| 2026-05-06 22:53 | 33.85087 | -79.80508 | 24992 ft | 304 kts | 4° |
| 2026-05-06 22:53 | 33.87159 | -79.79999 | 24992 ft | 304 kts | 4° |
| 2026-05-06 22:53 | 33.89231 | -79.79490 | 24988 ft | 304 kts | 4° |
| 2026-05-06 22:53 | 33.91303 | -79.78980 | 24988 ft | 304 kts | 4° |
| 2026-05-06 22:54 | 33.93377 | -79.78470 | 24986 ft | 304 kts | 4° |
| 2026-05-06 22:54 | 33.95451 | -79.77960 | 24986 ft | 304 kts | 4° |
| 2026-05-06 22:54 | 33.97499 | -79.77455 | 24990 ft | 304 kts | 4° |
| 2026-05-06 22:54 | 33.99603 | -79.76936 | 24989 ft | 304 kts | 4° |
| 2026-05-06 22:55 | 34.01646 | -79.76432 | 24989 ft | 304 kts | 4° |
| 2026-05-06 22:55 | 34.03723 | -79.75920 | 24990 ft | 304 kts | 4° |
| 2026-05-06 22:55 | 34.05796 | -79.75409 | 24991 ft | 304 kts | 4° |
| 2026-05-06 22:55 | 34.07870 | -79.74897 | 24992 ft | 304 kts | 4° |
| 2026-05-06 22:56 | 34.09947 | -79.74383 | 24994 ft | 304 kts | 4° |
| 2026-05-06 22:56 | 34.12019 | -79.73871 | 24996 ft | 304 kts | 4° |
| 2026-05-06 22:56 | 34.14096 | -79.73357 | 24995 ft | 304 kts | 4° |
| 2026-05-06 22:56 | 34.16169 | -79.72844 | 25000 ft | 304 kts | 4° |
| 2026-05-06 22:57 | 34.18250 | -79.72330 | 24996 ft | 304 kts | 4° |
| 2026-05-06 22:57 | 34.20324 | -79.71817 | 24995 ft | 305 kts | 4° |
| 2026-05-06 22:57 | 34.22397 | -79.71302 | 24993 ft | 304 kts | 4° |
| 2026-05-06 22:57 | 34.24473 | -79.70787 | 24994 ft | 304 kts | 4° |
| 2026-05-06 22:58 | 34.26549 | -79.70273 | 24996 ft | 305 kts | 4° |
| 2026-05-06 22:58 | 34.28630 | -79.69757 | 24993 ft | 305 kts | 4° |
| 2026-05-06 22:58 | 34.30707 | -79.69240 | 24994 ft | 305 kts | 4° |
| 2026-05-06 22:58 | 34.32783 | -79.68725 | 24992 ft | 305 kts | 4° |
| 2026-05-06 22:59 | 34.34862 | -79.68208 | 24989 ft | 305 kts | 4° |
| 2026-05-06 22:59 | 34.36940 | -79.67691 | 24987 ft | 305 kts | 4° |
| 2026-05-06 22:59 | 34.39019 | -79.67174 | 24990 ft | 305 kts | 4° |
| 2026-05-06 22:59 | 34.41097 | -79.66657 | 24987 ft | 305 kts | 4° |
| 2026-05-06 23:00 | 34.43176 | -79.66139 | 24990 ft | 305 kts | 4° |
| 2026-05-06 23:00 | 34.45252 | -79.65621 | 24983 ft | 305 kts | 4° |
| 2026-05-06 23:00 | 34.47330 | -79.65104 | 24983 ft | 305 kts | 4° |
| 2026-05-06 23:00 | 34.49411 | -79.64584 | 24985 ft | 305 kts | 4° |
| 2026-05-06 23:01 | 34.51488 | -79.64066 | 24982 ft | 305 kts | 4° |
| 2026-05-06 23:01 | 34.53542 | -79.63553 | 24985 ft | 305 kts | 4° |
| 2026-05-06 23:01 | 34.55651 | -79.63026 | 24986 ft | 305 kts | 4° |
| 2026-05-06 23:01 | 34.57707 | -79.62512 | 24986 ft | 305 kts | 4° |
| 2026-05-06 23:02 | 34.59786 | -79.61992 | 24987 ft | 304 kts | 4° |
| 2026-05-06 23:02 | 34.61853 | -79.61474 | 24984 ft | 302 kts | 4° |
| 2026-05-06 23:02 | 34.63906 | -79.60962 | 24983 ft | 301 kts | 4° |
| 2026-05-06 23:02 | 34.65958 | -79.60449 | 24983 ft | 300 kts | 4° |
| 2026-05-06 23:03 | 34.67998 | -79.59937 | 24978 ft | 300 kts | 4° |
| 2026-05-06 23:03 | 34.70038 | -79.59424 | 24985 ft | 299 kts | 4° |
| 2026-05-06 23:03 | 34.72072 | -79.58915 | 24981 ft | 298 kts | 4° |
| 2026-05-06 23:03 | 34.74103 | -79.58407 | 24980 ft | 298 kts | 4° |
| 2026-05-06 23:04 | 34.76137 | -79.57896 | 24981 ft | 298 kts | 4° |
| 2026-05-06 23:04 | 34.78169 | -79.57385 | 24981 ft | 298 kts | 4° |
| 2026-05-06 23:04 | 34.80204 | -79.56873 | 24981 ft | 298 kts | 4° |
| 2026-05-06 23:04 | 34.82236 | -79.56362 | 24980 ft | 298 kts | 4° |
| 2026-05-06 23:05 | 34.84270 | -79.55851 | 24977 ft | 298 kts | 4° |
| 2026-05-06 23:05 | 34.86302 | -79.55339 | 24977 ft | 299 kts | 4° |
| 2026-05-06 23:05 | 34.88338 | -79.54826 | 24951 ft | 299 kts | 4° |
| 2026-05-06 23:05 | 34.90376 | -79.54313 | 24949 ft | 299 kts | 4° |
| 2026-05-06 23:06 | 34.92415 | -79.53799 | 24946 ft | 299 kts | 4° |
| 2026-05-06 23:06 | 34.94452 | -79.53285 | 24944 ft | 299 kts | 4° |
| 2026-05-06 23:06 | 34.96495 | -79.52769 | 24941 ft | 299 kts | 4° |
| 2026-05-06 23:06 | 34.98536 | -79.52254 | 24860 ft | 302 kts | 4° |
| 2026-05-06 23:07 | 35.00627 | -79.51727 | 24515 ft | 311 kts | 5° |
| 2026-05-06 23:07 | 35.02767 | -79.51182 | 24110 ft | 317 kts | 5° |
| 2026-05-06 23:07 | 35.04937 | -79.50630 | 23694 ft | 321 kts | 5° |
| 2026-05-06 23:07 | 35.07138 | -79.50072 | 23224 ft | 324 kts | 5° |
| 2026-05-06 23:08 | 35.09343 | -79.49513 | 22787 ft | 324 kts | 5° |
| 2026-05-06 23:08 | 35.11549 | -79.48975 | 22352 ft | 321 kts | 3° |
| 2026-05-06 23:08 | 35.13758 | -79.48686 | 21939 ft | 319 kts | 360° |
| 2026-05-06 23:08 | 35.15966 | -79.48399 | 21551 ft | 319 kts | 1° |
| 2026-05-06 23:09 | 35.18173 | -79.48089 | 21134 ft | 319 kts | 1° |
| 2026-05-06 23:09 | 35.20373 | -79.47788 | 20714 ft | 318 kts | 1° |
| 2026-05-06 23:09 | 35.22567 | -79.47498 | 20295 ft | 317 kts | 1° |
| 2026-05-06 23:09 | 35.24738 | -79.47209 | 19885 ft | 317 kts | 1° |
| 2026-05-06 23:10 | 35.26928 | -79.46912 | 19469 ft | 317 kts | 1° |
| 2026-05-06 23:10 | 35.29123 | -79.46614 | 19050 ft | 317 kts | 1° |
| 2026-05-06 23:10 | 35.31314 | -79.46320 | 18636 ft | 317 kts | 1° |
| 2026-05-06 23:10 | 35.33496 | -79.45915 | 18216 ft | 319 kts | 10° |
| 2026-05-06 23:11 | 35.35582 | -79.44963 | 17766 ft | 321 kts | 22° |
| 2026-05-06 23:11 | 35.37478 | -79.43499 | 17342 ft | 324 kts | 35° |
| 2026-05-06 23:11 | 35.39212 | -79.41741 | 16907 ft | 322 kts | 36° |
| 2026-05-06 23:11 | 35.40948 | -79.40007 | 16482 ft | 321 kts | 36° |
| 2026-05-06 23:12 | 35.42676 | -79.38277 | 16058 ft | 320 kts | 37° |
| 2026-05-06 23:12 | 35.44392 | -79.36542 | 15634 ft | 319 kts | 37° |
| 2026-05-06 23:12 | 35.46098 | -79.34817 | 15239 ft | 318 kts | 37° |
| 2026-05-06 23:12 | 35.47804 | -79.33097 | 14816 ft | 317 kts | 37° |
| 2026-05-06 23:13 | 35.49510 | -79.31378 | 14400 ft | 316 kts | 37° |
| 2026-05-06 23:13 | 35.51207 | -79.29661 | 13983 ft | 316 kts | 37° |
| 2026-05-06 23:13 | 35.52330 | -79.28527 | 13700 ft | 315 kts | 37° |
| 2026-05-06 23:13 | 35.54015 | -79.26824 | 13260 ft | 313 kts | 37° |
| 2026-05-06 23:14 | 35.55689 | -79.25132 | 12846 ft | 311 kts | 37° |
| 2026-05-06 23:14 | 35.57354 | -79.23448 | 12437 ft | 309 kts | 37° |
| 2026-05-06 23:14 | 35.59007 | -79.21774 | 12031 ft | 307 kts | 38° |
| 2026-05-06 23:14 | 35.60649 | -79.20108 | 11628 ft | 306 kts | 38° |
| 2026-05-06 23:15 | 35.62286 | -79.18450 | 11225 ft | 304 kts | 38° |
| 2026-05-06 23:15 | 35.63768 | -79.16598 | 10899 ft | 303 kts | 53° |
| 2026-05-06 23:15 | 35.64986 | -79.14507 | 10675 ft | 298 kts | 53° |
| 2026-05-06 23:15 | 35.66225 | -79.12479 | 10445 ft | 296 kts | 52° |
| 2026-05-06 23:16 | 35.67453 | -79.10458 | 10219 ft | 294 kts | 53° |
| 2026-05-06 23:16 | 35.68656 | -79.08429 | 9992 ft | 293 kts | 54° |
| 2026-05-06 23:16 | 35.69860 | -79.06400 | 9754 ft | 293 kts | 53° |
| 2026-05-06 23:16 | 35.71064 | -79.04385 | 9514 ft | 292 kts | 53° |
| 2026-05-06 23:17 | 35.72264 | -79.02379 | 9281 ft | 290 kts | 53° |
| 2026-05-06 23:17 | 35.73458 | -79.00379 | 9055 ft | 289 kts | 53° |
| 2026-05-06 23:17 | 35.74646 | -78.98384 | 8828 ft | 289 kts | 54° |
| 2026-05-06 23:17 | 35.75831 | -78.96393 | 8599 ft | 288 kts | 54° |
| 2026-05-06 23:18 | 35.77016 | -78.94404 | 8377 ft | 287 kts | 54° |
| 2026-05-06 23:18 | 35.78186 | -78.92418 | 8163 ft | 287 kts | 57° |
| 2026-05-06 23:18 | 35.79014 | -78.90239 | 7997 ft | 283 kts | 75° |
| 2026-05-06 23:18 | 35.79374 | -78.87905 | 7987 ft | 274 kts | 87° |
| 2026-05-06 23:19 | 35.79599 | -78.85534 | 7823 ft | 276 kts | 86° |
| 2026-05-06 23:19 | 35.79836 | -78.83180 | 7585 ft | 279 kts | 86° |
| 2026-05-06 23:19 | 35.80064 | -78.80826 | 7307 ft | 281 kts | 86° |
| 2026-05-06 23:19 | 35.80292 | -78.78439 | 7050 ft | 281 kts | 86° |
| 2026-05-06 23:20 | 35.80526 | -78.76059 | 6801 ft | 279 kts | 86° |
| 2026-05-06 23:20 | 35.80762 | -78.73689 | 6561 ft | 277 kts | 85° |
| 2026-05-06 23:20 | 35.81352 | -78.71450 | 6293 ft | 275 kts | 60° |
| 2026-05-06 23:20 | 35.82653 | -78.69791 | 6025 ft | 268 kts | 31° |
| 2026-05-06 23:21 | 35.84354 | -78.69099 | 5900 ft | 253 kts | 1° |
| 2026-05-06 23:21 | 35.86083 | -78.69317 | 5634 ft | 250 kts | 345° |
| 2026-05-06 23:21 | 35.87818 | -78.69518 | 5398 ft | 254 kts | 1° |
| 2026-05-06 23:21 | 35.89486 | -78.68783 | 5168 ft | 259 kts | 33° |
| 2026-05-06 23:22 | 35.90912 | -78.67434 | 4932 ft | 258 kts | 40° |
| 2026-05-06 23:22 | 35.92304 | -78.66029 | 4686 ft | 258 kts | 40° |
| 2026-05-06 23:22 | 35.93694 | -78.64620 | 4434 ft | 257 kts | 40° |
| 2026-05-06 23:22 | 35.95026 | -78.63151 | 4194 ft | 257 kts | 49° |
| 2026-05-06 23:23 | 35.96184 | -78.61462 | 3984 ft | 253 kts | 53° |
| 2026-05-06 23:23 | 35.97264 | -78.59811 | 3985 ft | 246 kts | 53° |
| 2026-05-06 23:23 | 35.98328 | -78.58182 | 3981 ft | 243 kts | 53° |
| 2026-05-06 23:23 | 35.99390 | -78.56567 | 3982 ft | 241 kts | 53° |
| 2026-05-06 23:24 | 36.00446 | -78.54959 | 3980 ft | 240 kts | 53° |
| 2026-05-06 23:24 | 36.01495 | -78.53357 | 3985 ft | 240 kts | 53° |
| 2026-05-06 23:24 | 36.02542 | -78.51750 | 3981 ft | 240 kts | 53° |
| 2026-05-06 23:24 | 36.03586 | -78.50148 | 3987 ft | 239 kts | 53° |
| 2026-05-06 23:25 | 36.04841 | -78.48821 | 3979 ft | 239 kts | 25° |
| 2026-05-06 23:25 | 36.06438 | -78.48456 | 3977 ft | 232 kts | 351° |
| 2026-05-06 23:25 | 36.07921 | -78.49094 | 3983 ft | 224 kts | 324° |
| 2026-05-06 23:25 | 36.08954 | -78.50431 | 3978 ft | 212 kts | 291° |
| 2026-05-06 23:26 | 36.09192 | -78.52150 | 3978 ft | 201 kts | 259° |
| 2026-05-06 23:26 | 36.08908 | -78.53826 | 3976 ft | 199 kts | 253° |
| 2026-05-06 23:26 | 36.08312 | -78.55311 | 3972 ft | 192 kts | 225° |
| 2026-05-06 23:26 | 36.07152 | -78.56060 | 3973 ft | 196 kts | 196° |
| 2026-05-06 23:27 | 36.05811 | -78.56354 | 4003 ft | 194 kts | 197° |
| 2026-05-06 23:27 | 36.04663 | -78.57118 | 4152 ft | 187 kts | 219° |
| 2026-05-06 23:27 | 36.03677 | -78.58189 | 4215 ft | 189 kts | 223° |
| 2026-05-06 23:27 | 36.02756 | -78.59345 | 4333 ft | 188 kts | 227° |
| 2026-05-06 23:28 | 36.01873 | -78.60552 | 4326 ft | 193 kts | 228° |
| 2026-05-06 23:28 | 36.00959 | -78.61773 | 4102 ft | 192 kts | 226° |
| 2026-05-06 23:28 | 36.00027 | -78.62941 | 3915 ft | 190 kts | 225° |
| 2026-05-06 23:28 | 35.99100 | -78.64088 | 3730 ft | 187 kts | 226° |
| 2026-05-06 23:29 | 35.98202 | -78.65229 | 3602 ft | 184 kts | 225° |
| 2026-05-06 23:29 | 35.97291 | -78.66346 | 3402 ft | 185 kts | 225° |
| 2026-05-06 23:29 | 35.96387 | -78.67474 | 3198 ft | 184 kts | 225° |
| 2026-05-06 23:29 | 35.95499 | -78.68596 | 2948 ft | 176 kts | 226° |
| 2026-05-06 23:30 | 35.94662 | -78.69622 | 2570 ft | 163 kts | 223° |
| 2026-05-06 23:30 | 35.93876 | -78.70553 | 2228 ft | 152 kts | 224° |
| 2026-05-06 23:30 | 35.93152 | -78.71451 | 1960 ft | 139 kts | 223° |
| 2026-05-06 23:30 | 35.92480 | -78.72260 | 1730 ft | 137 kts | 225° |
| 2026-05-06 23:31 | 35.91786 | -78.73168 | 1506 ft | 140 kts | 224° |
| 2026-05-06 23:31 | 35.91140 | -78.73986 | 1268 ft | 125 kts | 224° |
| 2026-05-06 23:31 | 35.90506 | -78.74722 | 1155 ft | 128 kts | 225° |
| 2026-05-06 23:31 | 35.89919 | -78.75482 | 975 ft | 119 kts | 225° |
| 2026-05-06 23:32 | 35.89354 | -78.76181 | 885 ft | 115 kts | 222° |
| 2026-05-06 23:32 | 35.88816 | -78.76829 | 725 ft | 94 kts | 225° |
| 2026-05-06 23:32 | 35.88380 | -78.77364 | 678 ft | 84 kts | 227° |
| 2026-05-06 23:32 | 35.88007 | -78.77823 | 502 ft | 75 kts | 226° |
| 2026-05-06 23:33 | 35.87691 | -78.78223 | 436 ft | 53 kts | 226° |
| 2026-05-06 23:33 | 35.87498 | -78.78465 | 431 ft | 35 kts | 224° |
| 2026-05-06 23:33 | 35.87430 | -78.78626 | 431 ft | 9 kts | 321° |
| 2026-05-06 23:33 | 35.87438 | -78.78636 | 431 ft | 0 kts | 313° |
| 2026-05-06 23:34 | 35.87446 | -78.78646 | 431 ft | 11 kts | 318° |
| 2026-05-06 23:34 | 35.87539 | -78.78600 | 424 ft | 18 kts | 45° |
| 2026-05-06 23:34 | 35.87615 | -78.78507 | 427 ft | 12 kts | 44° |
| 2026-05-06 23:35 | 35.87679 | -78.78427 | 426 ft | 15 kts | 46° |
| 2026-05-06 23:35 | 35.87756 | -78.78418 | 429 ft | 12 kts | 6° |
| 2026-05-06 23:35 | 35.87829 | -78.78344 | 430 ft | 15 kts | 45° |
| 2026-05-06 23:35 | 35.87912 | -78.78242 | 428 ft | 18 kts | 44° |
| 2026-05-06 23:36 | 35.88008 | -78.78267 | 427 ft | 17 kts | 319° |
| 2026-05-06 23:36 | 35.88044 | -78.78263 | 431 ft | 0 kts | 46° |